Time;durP1;ratioP1;P1;durP2;ratioP2;P2;SDS_P1;SDS_P2;PMS_P1;PMS_P2;Temp;Humidity;BMP_temperature;BMP_pressure;BME280_temperature;BME280_humidity;BME280_pressure;Samples;Min_cycle;Max_cycle;Signal;HPM_P1;HPM_P2
2022/08/27 00:02:20;;;;;;;8.63;5.72;;;;;;;27.14;59.48;100165.63;5011805;28;20050;-75
2022/08/27 00:04:48;;;;;;;7.22;5.32;;;;;;;27.16;59.65;100160.41;5011257;28;20042;-74
2022/08/27 00:07:16;;;;;;;7.45;5.30;;;;;;;27.17;58.66;100164.81;5008019;28;20050;-74
2022/08/27 00:09:44;;;;;;;9.63;5.40;;;;;;;27.21;58.13;100162.78;5010695;28;20053;-74
2022/08/27 00:12:12;;;;;;;6.78;5.35;;;;;;;27.22;57.62;100156.00;5011234;28;20062;-75
2022/08/27 00:14:40;;;;;;;6.82;4.78;;;;;;;27.31;57.45;100163.97;5011687;28;20050;-74
2022/08/27 00:17:08;;;;;;;5.68;4.80;;;;;;;27.44;57.51;100155.91;5025425;28;20056;-74
2022/08/27 00:19:38;;;;;;;6.32;5.28;;;;;;;27.47;57.80;100164.31;5004389;28;20517;-74
2022/08/27 00:22:08;;;;;;;7.57;5.20;;;;;;;27.37;58.29;100165.19;5011556;28;20054;-75
2022/08/27 00:24:36;;;;;;;8.45;5.07;;;;;;;27.35;58.01;100156.34;5011743;28;20042;-74
2022/08/27 00:27:15;;;;;;;6.60;5.10;;;;;;;27.27;57.40;100161.16;5011753;28;20038;-74
2022/08/27 00:29:44;;;;;;;9.43;5.30;;;;;;;27.24;58.22;100159.19;5011123;28;20061;-74
2022/08/27 00:32:11;;;;;;;9.68;4.93;;;;;;;27.32;57.89;100148.72;5009935;28;20062;-75
2022/08/27 00:34:39;;;;;;;10.40;5.80;;;;;;;27.29;58.69;100158.78;5009935;28;20042;-75
2022/08/27 00:37:07;;;;;;;7.47;5.82;;;;;;;27.37;58.10;100151.13;5011332;28;20054;-75
2022/08/27 00:39:35;;;;;;;8.68;5.80;;;;;;;27.30;58.63;100146.31;5011260;28;20151;-75
2022/08/27 00:42:05;;;;;;;6.78;5.45;;;;;;;27.23;59.32;100146.34;5011609;28;20385;-75
2022/08/27 00:44:33;;;;;;;5.97;5.25;;;;;;;27.20;58.87;100149.97;5011203;28;20050;-74
2022/08/27 00:47:19;;;;;;;8.00;5.80;;;;;;;27.17;59.66;100157.19;5014693;28;20061;-74
2022/08/27 00:49:52;;;;;;;6.97;5.45;;;;;;;27.22;59.71;100147.56;5013939;28;20038;-74
2022/08/27 00:52:32;;;;;;;6.07;5.47;;;;;;;27.14;60.09;100148.78;5012083;28;20049;-75
2022/08/27 00:55:07;;;;;;;5.78;5.03;;;;;;;27.18;59.96;100149.56;5014897;28;20480;-75
2022/08/27 00:57:37;;;;;;;9.15;5.40;;;;;;;27.23;58.96;100157.59;5014879;28;20065;-75
2022/08/27 01:00:09;;;;;;;7.70;5.47;;;;;;;27.15;59.44;100154.00;5014834;28;20057;-75
2022/08/27 01:02:37;;;;;;;6.55;5.45;;;;;;;27.09;60.14;100158.41;5014626;28;20493;-74
2022/08/27 01:05:09;;;;;;;6.97;5.38;;;;;;;27.07;60.55;100155.19;5014726;28;20053;-75
2022/08/27 01:07:42;;;;;;;8.77;6.20;;;;;;;26.77;60.19;100151.63;5014468;28;20492;-74
2022/08/27 01:10:19;;;;;;;7.35;5.93;;;;;;;26.82;60.39;100151.22;5014837;28;20424;-74
2022/08/27 01:12:48;;;;;;;7.57;5.93;;;;;;;26.89;60.25;100155.22;5014720;28;20492;-74
2022/08/27 01:15:23;;;;;;;7.25;6.00;;;;;;;26.86;60.33;100156.81;5016626;28;20041;-74
2022/08/27 01:17:51;;;;;;;7.93;6.10;;;;;;;26.88;60.26;100150.81;5034724;28;20048;-74
2022/08/27 01:20:45;;;;;;;9.43;6.10;;;;;;;26.90;60.21;100157.63;5033286;28;20053;-74
2022/08/27 01:23:27;;;;;;;9.82;6.20;;;;;;;26.99;59.36;100154.44;5034449;28;20049;-74
2022/08/27 01:25:56;;;;;;;10.27;6.45;;;;;;;27.08;59.32;100163.22;5034715;28;20049;-74
2022/08/27 01:28:24;;;;;;;9.40;6.55;;;;;;;27.16;59.74;100161.22;5021312;28;20054;-75
2022/08/27 01:31:06;;;;;;;5.90;5.05;;;;;;;26.83;57.02;100161.22;5013940;28;20052;-74
2022/08/27 01:33:34;;;;;;;7.47;4.85;;;;;;;26.75;56.77;100156.03;5013778;28;20042;-75
2022/08/27 01:36:03;;;;;;;6.60;4.70;;;;;;;26.74;57.49;100157.25;5014070;28;20057;-74
2022/08/27 01:38:32;;;;;;;5.53;4.43;;;;;;;26.75;56.74;100162.47;5014079;28;20045;-75
2022/08/27 01:41:01;;;;;;;8.43;5.30;;;;;;;26.68;56.51;100154.84;5013713;28;20523;-74
2022/08/27 01:43:30;;;;;;;4.70;4.15;;;;;;;26.70;57.11;100160.84;5013917;28;20053;-74
2022/08/27 01:45:58;;;;;;;7.30;4.70;;;;;;;26.75;56.77;100170.88;5013963;28;20042;-74
2022/08/27 01:48:26;;;;;;;7.50;5.05;;;;;;;26.66;57.48;100165.66;5013538;28;20046;-74
2022/08/27 01:50:54;;;;;;;5.68;4.80;;;;;;;26.76;56.73;100166.88;5013878;28;20492;-74
2022/08/27 01:53:24;;;;;;;8.43;5.40;;;;;;;26.66;57.05;100162.88;5012718;28;20052;-74
2022/08/27 01:55:53;;;;;;;10.10;5.22;;;;;;;26.57;58.01;100162.44;5008830;28;20053;-74
2022/08/27 01:58:25;;;;;;;7.55;4.90;;;;;;;26.46;59.20;100165.25;5013379;28;20046;-74
2022/08/27 02:00:58;;;;;;;8.38;5.50;;;;;;;26.35;59.14;100173.69;5013649;28;20049;-74
2022/08/27 02:03:26;;;;;;;5.75;5.13;;;;;;;26.36;60.15;100180.06;5011923;28;20046;-75
2022/08/27 02:05:54;;;;;;;10.50;6.38;;;;;;;26.28;61.26;100180.06;5013557;28;20053;-74
2022/08/27 02:08:22;;;;;;;7.55;6.03;;;;;;;26.43;61.17;100175.28;5013732;28;20050;-75
2022/08/27 02:10:50;;;;;;;7.07;6.03;;;;;;;26.33;61.67;100176.06;5013870;28;20050;-74
2022/08/27 02:13:18;;;;;;;8.48;6.75;;;;;;;26.20;62.22;100175.59;5013401;28;20044;-74
2022/08/27 02:15:46;;;;;;;12.18;6.43;;;;;;;26.08;63.14;100173.19;5020113;28;20041;-74
2022/08/27 02:18:15;;;;;;;9.60;6.90;;;;;;;26.03;63.32;100174.38;5033217;28;20045;-74
2022/08/27 02:20:44;;;;;;;8.73;5.78;;;;;;;26.04;63.36;100170.38;5028114;28;20038;-74
2022/08/27 02:23:14;;;;;;;9.27;6.40;;;;;;;26.05;63.25;100174.78;5024995;28;20053;-74
2022/08/27 02:25:42;;;;;;;8.05;6.55;;;;;;;25.99;63.48;100173.56;5033035;28;20053;-74
2022/08/27 02:28:10;;;;;;;7.57;6.30;;;;;;;25.97;63.76;100175.97;5015520;28;20665;-74
2022/08/27 02:30:39;;;;;;;10.90;6.88;;;;;;;25.99;63.52;100179.97;5014568;28;20043;-74
2022/08/27 02:33:07;;;;;;;11.23;7.25;;;;;;;25.95;63.55;100173.56;5033041;28;20072;-74
2022/08/27 02:35:39;;;;;;;6.95;6.15;;;;;;;26.15;63.46;100176.03;5018971;28;20046;-74
2022/08/27 02:38:07;;;;;;;8.85;6.65;;;;;;;26.23;63.12;100172.03;5033299;28;20404;-74
2022/08/27 02:40:36;;;;;;;10.55;6.45;;;;;;;26.12;63.45;100171.19;5028872;28;20484;-74
2022/08/27 02:43:04;;;;;;;7.25;5.80;;;;;;;26.17;63.70;100168.81;5031954;28;20054;-74
2022/08/27 02:45:32;;;;;;;11.23;6.93;;;;;;;26.13;63.51;100169.97;5033190;28;20060;-74
2022/08/27 02:48:03;;;;;;;9.65;6.95;;;;;;;26.18;63.17;100183.63;5033106;28;20365;-74
2022/08/27 02:50:32;;;;;;;9.57;7.28;;;;;;;26.09;62.92;100178.41;5033347;28;20495;-74
2022/08/27 02:53:01;;;;;;;8.40;6.15;;;;;;;26.14;63.15;100177.19;5032473;28;20045;-74
2022/08/27 02:55:29;;;;;;;8.10;6.38;;;;;;;26.11;63.59;100180.81;5032801;28;20400;-74
2022/08/27 02:57:58;;;;;;;9.93;7.57;;;;;;;26.18;62.84;100178.00;5032865;28;20072;-74
2022/08/27 03:00:27;;;;;;;10.15;6.90;;;;;;;26.14;62.71;100177.19;5032520;28;20065;-74
2022/08/27 03:02:56;;;;;;;8.20;5.72;;;;;;;26.22;62.37;100178.84;5031990;28;20416;-74
2022/08/27 03:05:25;;;;;;;8.45;6.40;;;;;;;26.14;62.87;100174.38;5027407;28;20050;-74
2022/08/27 03:07:53;;;;;;;8.30;5.78;;;;;;;26.02;62.94;100173.59;5027046;28;20496;-74
2022/08/27 03:10:21;;;;;;;8.80;6.47;;;;;;;26.11;63.15;100180.81;5032033;28;20049;-74
2022/08/27 03:12:49;;;;;;;6.85;5.93;;;;;;;26.19;62.58;100171.19;5032819;28;20052;-74
2022/08/27 03:15:18;;;;;;;8.77;5.38;;;;;;;26.22;63.68;100170.41;5029490;28;20503;-74
2022/08/27 03:20:39;;;;;;;7.47;5.78;;;;;;;26.13;63.33;100164.38;5010426;28;20484;-74
2022/08/27 03:23:08;;;;;;;7.47;5.13;;;;;;;26.23;62.54;100166.44;5008016;28;20118;-74
2022/08/27 03:25:37;;;;;;;7.35;5.97;;;;;;;26.27;62.06;100161.66;5011639;28;20041;-74
2022/08/27 03:28:05;;;;;;;8.48;5.32;;;;;;;26.19;62.04;100157.19;5011871;28;20045;-74
2022/08/27 03:30:52;;;;;;;7.57;6.03;;;;;;;26.37;61.58;100160.03;5010878;28;20050;-74
2022/08/27 03:33:21;;;;;;;6.03;5.43;;;;;;;26.30;61.83;100160.84;5012459;28;20058;-74
2022/08/27 03:35:49;;;;;;;9.07;5.13;;;;;;;26.30;61.91;100160.84;5011405;28;20046;-74
2022/08/27 03:38:19;;;;;;;6.28;5.30;;;;;;;26.29;61.94;100158.41;5012001;28;20096;-75
2022/08/27 03:40:47;;;;;;;7.03;4.72;;;;;;;26.26;61.62;100160.03;5011535;28;20053;-74
2022/08/27 03:43:17;;;;;;;8.27;5.07;;;;;;;26.30;61.60;100154.44;5011379;28;20481;-74
2022/08/27 03:45:46;;;;;;;7.93;5.30;;;;;;;26.34;62.46;100158.03;5011889;28;20042;-74
2022/08/27 03:48:28;;;;;;;11.07;5.25;;;;;;;26.32;62.53;100163.25;5010352;28;20061;-74
2022/08/27 03:50:56;;;;;;;7.93;5.70;;;;;;;26.34;62.64;100155.22;5011407;28;20072;-74
2022/08/27 03:53:24;;;;;;;7.45;4.93;;;;;;;26.51;61.50;100147.22;5011712;28;20060;-74
2022/08/27 03:55:52;;;;;;;8.63;5.38;;;;;;;26.46;60.73;100151.25;5011720;28;20049;-74
2022/08/27 03:58:20;;;;;;;5.75;4.75;;;;;;;26.52;60.78;100143.22;5010435;28;20501;-74
2022/08/27 04:00:48;;;;;;;5.35;4.53;;;;;;;26.49;60.82;100142.00;5023328;28;20045;-74
2022/08/27 04:03:16;;;;;;;7.45;5.43;;;;;;;26.60;60.37;100135.59;5011687;28;20607;-74
2022/08/27 04:05:44;;;;;;;7.10;5.28;;;;;;;26.70;59.84;100149.59;5013613;28;20053;-75
2022/08/27 04:08:12;;;;;;;5.63;5.03;;;;;;;26.79;59.71;100142.81;5011228;28;20496;-75
2022/08/27 04:10:40;;;;;;;9.07;5.25;;;;;;;26.84;59.65;100140.38;5011046;28;20065;-75
2022/08/27 04:13:08;;;;;;;6.68;5.38;;;;;;;26.71;60.50;100144.81;5011730;28;20054;-75
2022/08/27 04:15:40;;;;;;;8.45;5.60;;;;;;;26.73;61.17;100136.78;5013679;28;20045;-75
2022/08/27 04:18:08;;;;;;;6.50;5.10;;;;;;;26.78;59.74;100139.19;5011536;28;20058;-75
2022/08/27 04:20:37;;;;;;;6.43;5.30;;;;;;;26.95;59.59;100142.41;5019345;28;20045;-75
2022/08/27 04:23:05;;;;;;;6.75;4.95;;;;;;;26.93;59.65;100144.81;5025774;28;20056;-75
2022/08/27 04:25:33;;;;;;;7.45;4.90;;;;;;;27.04;59.30;100134.38;5035534;28;20049;-75
2022/08/27 04:28:00;;;;;;;9.02;5.43;;;;;;;27.02;59.02;100136.75;5012965;28;20050;-75
2022/08/27 04:30:30;;;;;;;9.30;5.65;;;;;;;27.00;59.44;100138.38;5012197;28;20061;-75
2022/08/27 04:32:58;;;;;;;6.50;5.32;;;;;;;26.82;59.98;100141.97;5015034;28;20042;-75
2022/08/27 04:35:25;;;;;;;5.25;4.43;;;;;;;26.65;60.51;100146.41;5015049;28;20050;-75
2022/08/27 04:37:53;;;;;;;6.45;5.25;;;;;;;26.62;60.99;100147.22;5015285;28;20052;-75
2022/08/27 04:40:21;;;;;;;5.93;4.80;;;;;;;26.65;60.28;100146.41;5013838;28;20416;-75
2022/08/27 04:42:51;;;;;;;6.35;5.50;;;;;;;26.54;60.77;100144.41;5014823;28;20050;-75
2022/08/27 04:45:19;;;;;;;10.20;4.78;;;;;;;26.65;61.09;100152.03;5014693;28;20497;-78
2022/08/27 04:47:46;;;;;;;11.00;5.35;;;;;;;26.93;59.39;100150.44;4981654;28;20072;-77
2022/08/27 04:50:14;;;;;;;7.90;5.00;;;;;;;27.35;58.24;100154.34;4981753;28;20037;-77
2022/08/27 04:52:42;;;;;;;8.32;4.82;;;;;;;27.45;58.10;100154.69;4981528;28;20050;-77
2022/08/27 04:55:10;;;;;;;6.53;4.85;;;;;;;27.54;57.40;100155.06;4997903;28;20048;-77
2022/08/27 04:57:39;;;;;;;5.82;4.60;;;;;;;27.61;57.57;100155.06;5017602;28;20068;-77
2022/08/27 05:00:08;;;;;;;5.72;4.40;;;;;;;27.70;57.32;100162.25;5017609;28;20049;-77
2022/08/27 05:02:36;;;;;;;6.03;4.82;;;;;;;27.87;56.42;100169.78;5028890;28;20046;-77
2022/08/27 05:05:04;;;;;;;6.00;4.95;;;;;;;28.12;56.21;100160.41;4997472;28;20046;-77
2022/08/27 05:07:32;;;;;;;8.07;4.97;;;;;;;28.25;55.09;100157.16;5008916;28;20045;-78
2022/08/27 05:10:00;;;;;;;6.45;4.65;;;;;;;28.24;54.33;100149.94;5008412;28;20530;-77
2022/08/27 05:12:28;;;;;;;6.45;4.78;;;;;;;28.12;55.12;100148.34;5030725;28;20068;-78
2022/08/27 05:14:56;;;;;;;7.80;5.47;;;;;;;28.06;55.41;100147.19;5034194;28;20066;-78
2022/08/27 05:17:24;;;;;;;6.57;5.53;;;;;;;28.37;54.90;100153.84;5034693;28;20049;-78
2022/08/27 05:19:51;;;;;;;7.93;4.53;;;;;;;28.51;54.46;100152.13;5034770;28;20060;-78
2022/08/27 05:22:20;;;;;;;6.03;4.38;;;;;;;28.65;54.53;100163.25;5034581;28;20049;-78
2022/08/27 05:24:48;;;;;;;5.85;4.50;;;;;;;28.59;54.54;100161.31;5034741;28;20033;-78
2022/08/27 05:27:17;;;;;;;7.55;5.38;;;;;;;28.82;54.28;100172.75;5016548;28;20053;-78
2022/08/27 05:29:44;;;;;;;5.25;4.60;;;;;;;29.20;53.33;100177.63;5014688;28;20057;-78
2022/08/27 05:32:12;;;;;;;8.55;4.90;;;;;;;29.32;53.01;100175.50;5013666;28;20378;-78
2022/08/27 05:34:40;;;;;;;9.02;5.15;;;;;;;29.45;52.62;100179.38;5014686;28;20053;-78
2022/08/27 05:37:08;;;;;;;8.98;6.22;;;;;;;28.96;53.13;100177.47;5013317;28;20046;-79
2022/08/27 05:39:36;;;;;;;5.95;5.07;;;;;;;28.97;53.86;100179.06;5009417;28;20050;-79
2022/08/27 05:42:04;;;;;;;6.75;5.60;;;;;;;28.91;54.51;100175.13;5013368;28;20082;-79
2022/08/27 05:44:32;;;;;;;9.18;6.07;;;;;;;29.22;54.26;100177.19;5014265;28;20053;-79
2022/08/27 05:47:08;;;;;;;12.35;7.45;;;;;;;28.97;55.24;100183.91;5011898;28;20053;-78
2022/08/27 05:49:36;;;;;;;9.70;7.25;;;;;;;29.16;55.07;100184.50;5014206;28;20054;-78
2022/08/27 05:52:08;;;;;;;13.10;7.20;;;;;;;28.91;56.16;100196.84;5014184;28;20038;-79
2022/08/27 05:54:37;;;;;;;8.77;6.35;;;;;;;29.22;54.91;100189.28;5014262;28;20049;-79
2022/08/27 05:57:05;;;;;;;12.68;7.43;;;;;;;29.20;55.00;100188.09;5014088;28;20378;-79
2022/08/27 06:02:20;;;;;;;11.73;5.80;;;;;;;29.20;53.72;100202.19;5013690;28;20053;-78
2022/08/27 06:04:48;;;;;;;7.82;5.05;;;;;;;28.97;54.63;100197.97;5013771;28;20042;-80
2022/08/27 06:07:17;;;;;;;5.68;4.10;;;;;;;29.13;54.12;100197.44;5013304;28;20053;-80
2022/08/27 06:09:45;;;;;;;8.25;4.05;;;;;;;29.14;53.63;100192.59;5013512;28;20053;-79
2022/08/27 06:12:13;;;;;;;5.20;4.20;;;;;;;29.00;53.88;100190.72;5013764;28;20045;-79
2022/08/27 06:15:35;;;;;;;7.72;4.05;;;;;;;29.17;54.50;100186.13;5011911;28;20057;-79
2022/08/27 06:18:04;;;;;;;6.55;4.32;;;;;;;29.07;53.51;100204.72;5025101;28;20515;-79
2022/08/27 06:20:31;;;;;;;7.30;4.07;;;;;;;29.10;54.17;100206.72;5021693;28;20060;-79
2022/08/27 06:22:59;;;;;;;6.07;3.90;;;;;;;29.08;54.69;100212.75;5017009;28;20049;-79
2022/08/27 06:25:27;;;;;;;7.65;4.25;;;;;;;29.12;55.51;100212.72;5017005;28;20525;-79
2022/08/27 06:27:55;;;;;;;6.75;4.20;;;;;;;29.19;54.71;100235.22;5026777;28;20048;-79
2022/08/27 06:30:24;;;;;;;6.90;4.40;;;;;;;29.23;55.05;100252.84;5023748;28;20042;-79
2022/08/27 06:32:54;;;;;;;5.05;4.38;;;;;;;29.31;54.59;100264.06;5025872;28;20053;-79
2022/08/27 06:35:22;;;;;;;5.75;4.53;;;;;;;28.87;56.99;100258.03;5017771;28;20042;-80
2022/08/27 06:37:50;;;;;;;7.43;4.78;;;;;;;28.88;57.81;100259.63;5017984;28;20040;-79
2022/08/27 06:40:18;;;;;;;7.13;4.25;;;;;;;28.72;59.01;100257.31;5012976;28;20038;-71
2022/08/27 06:42:46;;;;;;;5.65;4.22;;;;;;;28.53;59.88;100256.63;5021246;28;20049;-71
2022/08/27 06:45:14;;;;;;;7.00;4.28;;;;;;;28.42;60.65;100251.06;5030359;28;20405;-77
2022/08/27 06:47:42;;;;;;;5.90;3.63;;;;;;;28.35;60.70;100240.66;5019596;28;20045;-89
2022/08/27 06:50:10;;;;;;;6.05;4.35;;;;;;;27.88;61.61;100227.63;5012602;28;20061;-87
2022/08/27 06:52:38;;;;;;;6.38;4.28;;;;;;;27.78;61.74;100231.28;5021644;28;20048;-77
2022/08/27 06:55:06;;;;;;;11.55;4.70;;;;;;;27.46;63.59;100240.59;5011897;28;20794;-78
2022/08/27 06:57:34;;;;;;;7.20;4.85;;;;;;;27.37;64.64;100253.03;5010817;28;20495;-77
2022/08/27 07:00:07;;;;;;;5.90;4.68;;;;;;;27.37;65.38;100258.66;5011086;28;20056;-77
2022/08/27 07:02:35;;;;;;;8.38;5.03;;;;;;;27.43;64.91;100261.88;5003204;28;20056;-77
2022/08/27 07:05:04;;;;;;;7.18;4.70;;;;;;;27.38;65.60;100253.84;5000545;28;20046;-76
2022/08/27 07:07:36;;;;;;;7.35;4.85;;;;;;;27.02;65.48;100254.69;5010109;28;20388;-75
2022/08/27 07:10:11;;;;;;;6.03;4.38;;;;;;;26.60;65.12;100247.84;5010184;28;20488;-74
2022/08/27 07:12:42;;;;;;;6.55;4.15;;;;;;;26.39;65.95;100250.19;5010076;28;20069;-74
2022/08/27 07:15:10;;;;;;;4.72;3.08;;;;;;;26.46;66.18;100249.41;5007520;28;20041;-74
2022/08/27 07:17:39;;;;;;;5.15;3.10;;;;;;;26.30;66.08;100247.00;5030491;28;20045;-75
2022/08/27 07:20:08;;;;;;;3.75;2.95;;;;;;;26.50;66.10;100239.03;5014767;28;20049;-74
2022/08/27 07:22:39;;;;;;;3.30;3.00;;;;;;;26.67;64.52;100242.22;5021836;28;20045;-75
2022/08/27 07:25:11;;;;;;;6.93;3.15;;;;;;;26.77;64.71;100241.44;5004979;28;20508;-74
2022/08/27 07:27:39;;;;;;;3.40;2.88;;;;;;;26.87;65.07;100247.47;5008060;28;20037;-73
2022/08/27 07:30:14;;;;;;;4.78;2.92;;;;;;;27.03;64.84;100247.88;5010936;28;20046;-75
2022/08/27 07:32:42;;;;;;;;;;;;;;;26.92;65.56;100249.88;5011448;28;20042;-75
2022/08/27 07:35:10;;;;;;;3.47;3.17;;;;;;;26.92;65.43;100241.44;5006481;28;19933;-75
2022/08/27 07:37:39;;;;;;;7.47;3.25;;;;;;;27.19;65.46;100238.22;5008579;28;20038;-75
2022/08/27 07:40:12;;;;;;;3.95;3.03;;;;;;;27.37;66.06;100230.56;5010938;28;20401;-75
2022/08/27 07:45:29;;;;;;;4.65;3.25;;;;;;;27.43;65.38;100218.94;5011040;28;20477;-75
2022/08/27 07:47:57;;;;;;;4.25;3.80;;;;;;;27.68;65.64;100227.31;5011254;28;20042;-75
2022/08/27 07:50:26;;;;;;;4.13;3.35;;;;;;;27.97;64.46;100223.56;5009581;28;20050;-75
2022/08/27 07:52:54;;;;;;;7.15;3.33;;;;;;;28.13;64.97;100226.69;5008794;28;20046;-75
2022/08/27 07:55:23;;;;;;;7.72;3.65;;;;;;;28.26;65.14;100232.66;5010830;28;20049;-75
2022/08/27 07:57:51;;;;;;;3.53;3.22;;;;;;;28.36;65.81;100233.84;5010401;28;20049;-75
2022/08/27 08:00:21;;;;;;;5.60;3.83;;;;;;;28.38;64.76;100236.22;5008073;28;20069;-75
2022/08/27 08:02:49;;;;;;;6.78;3.85;;;;;;;28.29;65.27;100239.47;4992507;28;20121;-75
2022/08/27 08:05:17;;;;;;;3.90;3.60;;;;;;;28.43;64.69;100239.41;5011717;28;20073;-75
2022/08/27 08:07:45;;;;;;;5.32;3.63;;;;;;;28.38;64.74;100242.66;5010199;28;20042;-75
2022/08/27 08:10:13;;;;;;;6.28;3.95;;;;;;;28.40;64.84;100234.59;5006840;28;20061;-75
2022/08/27 08:12:41;;;;;;;4.50;3.85;;;;;;;28.48;64.62;100243.00;4999689;28;20053;-74
2022/08/27 08:15:10;;;;;;;8.23;4.18;;;;;;;28.46;64.80;100245.41;5004155;28;20038;-74
2022/08/27 08:17:39;;;;;;;4.38;3.53;;;;;;;28.61;64.64;100254.56;5003188;28;20498;-75
2022/08/27 08:20:08;;;;;;;5.35;4.10;;;;;;;28.42;65.13;100251.06;5003388;28;20504;-74
2022/08/27 08:22:53;;;;;;;6.70;4.32;;;;;;;28.52;65.21;100267.09;5001082;28;20042;-73
2022/08/27 08:25:22;;;;;;;5.15;4.10;;;;;;;28.57;64.24;100268.66;5005591;28;20038;-74
2022/08/27 08:27:49;;;;;;;5.32;3.58;;;;;;;28.48;64.73;100273.97;5006736;28;20053;-74
2022/08/27 08:30:17;;;;;;;5.40;3.63;;;;;;;28.53;64.07;100279.94;5012622;28;20045;-75
2022/08/27 08:32:45;;;;;;;4.72;3.72;;;;;;;28.17;64.34;100275.31;5010830;28;20038;-74
2022/08/27 08:35:13;;;;;;;7.63;3.92;;;;;;;28.06;64.20;100283.00;5005766;28;20058;-74
2022/08/27 08:37:43;;;;;;;6.47;3.90;;;;;;;27.99;63.26;100275.38;5008079;28;20043;-74
2022/08/27 08:40:28;;;;;;;4.93;3.83;;;;;;;27.88;62.96;100283.88;5010256;28;20042;-74
2022/08/27 08:42:56;;;;;;;5.32;3.25;;;;;;;27.81;63.43;100289.50;5004929;28;20049;-74
2022/08/27 08:45:28;;;;;;;4.93;3.28;;;;;;;27.74;63.69;100292.31;5009792;28;20037;-74
2022/08/27 08:48:10;;;;;;;4.38;3.08;;;;;;;27.75;63.18;100288.31;5006841;28;20045;-75
2022/08/27 08:50:56;;;;;;;4.25;2.55;;;;;;;27.67;62.66;100295.97;5009698;28;20050;-74
2022/08/27 08:53:40;;;;;;;3.50;2.88;;;;;;;27.55;62.65;100299.97;5010450;28;20048;-74
2022/08/27 08:56:17;;;;;;;3.60;2.97;;;;;;;27.30;62.56;100322.47;5010279;28;20404;-74
2022/08/27 08:58:58;;;;;;;4.25;3.22;;;;;;;27.41;62.31;100330.91;4999731;28;20050;-75
2022/08/27 09:01:27;;;;;;;5.72;3.20;;;;;;;27.66;61.28;100344.16;4998810;28;20042;-74
2022/08/27 09:04:02;;;;;;;2.95;2.38;;;;;;;27.75;60.93;100331.28;5022619;28;20051;-74
2022/08/27 09:06:49;;;;;;;3.80;2.40;;;;;;;27.81;59.85;100337.28;5009941;28;20073;-74
2022/08/27 09:09:51;;;;;;;3.38;2.72;;;;;;;27.49;61.02;100344.56;5013303;28;20061;-74
2022/08/27 09:12:24;;;;;;;2.75;1.90;;;;;;;27.53;60.09;100347.34;5012922;28;20038;-75
2022/08/27 09:15:06;;;;;;;2.47;2.08;;;;;;;27.47;59.80;100354.59;5011829;28;20480;-74
2022/08/27 09:17:40;;;;;;;2.20;1.98;;;;;;;27.33;59.80;100359.00;5011948;28;20049;-74
2022/08/27 09:20:11;;;;;;;3.45;2.00;;;;;;;27.30;59.50;100367.41;5006606;28;20058;-73
2022/08/27 09:22:57;;;;;;;2.60;2.20;;;;;;;26.99;59.60;100390.28;5008819;28;20049;-74
2022/08/27 09:25:27;;;;;;;4.95;2.10;;;;;;;27.19;59.57;100403.94;5008928;28;20046;-74
2022/08/27 09:31:19;;;;;;;4.90;2.53;;;;;;;26.48;64.29;100432.16;5003202;28;20058;-70
2022/08/27 09:33:48;;;;;;;6.88;2.60;;;;;;;26.30;65.90;100418.06;5007448;28;20042;-76
2022/08/27 09:36:24;;;;;;;4.95;2.95;;;;;;;25.83;67.99;100417.72;5006460;28;20042;-74
2022/08/27 09:39:03;;;;;;;4.90;2.80;;;;;;;25.76;68.92;100413.69;5012151;28;20060;-74
2022/08/27 09:41:47;;;;;;;5.63;3.15;;;;;;;25.86;68.48;100434.56;5010678;28;20059;-73
2022/08/27 09:44:25;;;;;;;6.38;3.40;;;;;;;26.16;66.89;100438.38;5012827;28;20568;-73
2022/08/27 09:47:01;;;;;;;5.35;3.22;;;;;;;26.21;67.20;100454.03;5013111;28;20055;-73
2022/08/27 09:49:33;;;;;;;4.25;2.92;;;;;;;26.43;65.50;100466.19;4997653;28;20050;-75
2022/08/27 09:52:01;;;;;;;4.05;3.08;;;;;;;26.01;65.90;100479.53;4996023;28;20046;-74
2022/08/27 09:54:43;;;;;;;4.32;2.75;;;;;;;25.89;66.60;100489.06;5012793;28;20053;-75
2022/08/27 09:57:25;;;;;;;3.60;3.00;;;;;;;25.34;66.93;100487.72;4998359;28;20501;-74
2022/08/27 09:59:57;;;;;;;4.60;2.60;;;;;;;25.49;66.56;100500.69;5006195;28;20045;-73
2022/08/27 10:02:26;;;;;;;3.88;3.05;;;;;;;25.58;66.63;100502.41;5006320;28;20480;-74
2022/08/27 10:05:00;;;;;;;6.60;3.20;;;;;;;25.23;68.14;100510.03;4995330;28;20066;-73
2022/08/27 10:07:54;;;;;;;4.35;2.22;;;;;;;25.07;67.04;100474.66;4997261;28;20050;-72
2022/08/27 10:10:37;;;;;;;4.22;2.63;;;;;;;24.40;70.54;100451.81;4999496;28;20054;-72
2022/08/27 10:13:50;;;;;;;5.18;2.35;;;;;;;24.52;70.37;100464.75;4993046;28;20046;-71
2022/08/27 10:16:35;;;;;;;3.33;1.92;;;;;;;24.71;69.38;100474.19;5004026;28;20050;-71
2022/08/27 10:19:12;;;;;;;1.73;1.08;;;;;;;24.48;68.71;100479.91;5014132;28;20041;-71
2022/08/27 10:21:51;;;;;;;1.98;1.25;;;;;;;24.13;69.75;100460.22;5018042;28;20046;-70
2022/08/27 10:24:18;;;;;;;2.20;1.73;;;;;;;24.24;69.20;100449.19;5010325;28;20053;-70
2022/08/27 10:27:05;;;;;;;2.67;2.15;;;;;;;24.29;69.85;100437.69;5030474;28;20503;-71
2022/08/27 10:29:51;;;;;;;4.35;2.45;;;;;;;24.76;69.75;100439.47;5007755;28;20046;-70
2022/08/27 10:32:46;;;;;;;2.78;2.20;;;;;;;24.78;69.58;100429.50;5011363;28;20038;-70
2022/08/27 10:35:29;;;;;;;2.80;2.55;;;;;;;24.79;69.73;100427.53;5007971;28;20473;-70
2022/08/27 10:38:12;;;;;;;2.80;2.45;;;;;;;24.65;69.85;100419.75;5005493;28;20043;-69
2022/08/27 10:41:00;;;;;;;3.75;3.03;;;;;;;24.67;69.91;100418.19;5023998;28;20496;-69
2022/08/27 10:43:40;;;;;;;4.80;2.72;;;;;;;24.74;70.21;100416.66;5009585;28;20496;-70
2022/08/27 10:46:09;;;;;;;3.80;2.60;;;;;;;24.74;70.08;100405.47;5009695;28;20050;-70
2022/08/27 10:48:46;;;;;;;3.70;2.65;;;;;;;24.83;70.09;100397.63;5002953;28;20049;-70
2022/08/27 10:51:23;;;;;;;4.57;2.95;;;;;;;24.58;71.35;100389.69;5008520;28;20473;-70
2022/08/27 10:54:29;;;;;;;2.90;2.20;;;;;;;24.68;71.22;100386.22;5011075;28;20374;-70
2022/08/27 10:57:22;;;;;;;3.20;2.28;;;;;;;24.70;71.17;100397.03;5003299;28;20042;-70
2022/08/27 11:00:23;;;;;;;3.75;2.92;;;;;;;24.62;71.49;100407.34;4997184;28;20030;-70
2022/08/27 11:02:53;;;;;;;5.28;2.80;;;;;;;24.76;71.13;100419.88;4992605;28;20050;-70
2022/08/27 11:05:38;;;;;;;6.55;4.07;;;;;;;24.38;70.17;100417.00;4997315;28;20038;-70
2022/08/27 11:08:36;;;;;;;3.78;2.90;;;;;;;24.11;70.49;100423.47;4992760;28;20497;-70
2022/08/27 11:11:16;;;;;;;3.78;2.60;;;;;;;24.12;71.36;100419.50;4991876;28;20060;-70
2022/08/27 11:14:11;;;;;;;4.03;2.35;;;;;;;24.31;72.45;100414.94;5006587;28;20046;-69
2022/08/27 11:16:46;;;;;;;5.93;3.63;;;;;;;24.11;72.05;100415.09;5004140;28;20049;-69
2022/08/27 11:19:38;;;;;;;5.30;3.47;;;;;;;23.93;74.19;100425.13;5010642;28;20386;-69
2022/08/27 11:22:15;;;;;;;4.72;3.28;;;;;;;24.10;73.67;100438.59;5009926;28;20061;-69
2022/08/27 11:25:07;;;;;;;4.00;3.60;;;;;;;23.88;75.19;100452.25;5009557;28;20042;-69
2022/08/27 11:27:38;;;;;;;5.72;3.28;;;;;;;24.00;74.91;100465.19;5011590;28;20049;-69
2022/08/27 11:30:15;;;;;;;6.10;2.92;;;;;;;23.87;75.06;100461.00;5009565;28;20057;-70
2022/08/27 11:33:10;;;;;;;3.58;3.05;;;;;;;23.81;74.25;100473.66;4996975;28;20046;-69
2022/08/27 11:36:08;;;;;;;5.28;2.67;;;;;;;23.32;74.86;100468.44;4992279;28;20038;-69
2022/08/27 11:39:00;;;;;;;4.20;3.05;;;;;;;23.85;74.08;100450.19;5011396;28;20405;-69
2022/08/27 11:41:54;;;;;;;3.45;2.50;;;;;;;23.88;73.77;100452.25;5008004;28;20049;-69
2022/08/27 11:44:25;;;;;;;3.55;2.80;;;;;;;23.75;74.98;100440.44;5008995;28;20049;-70
2022/08/27 11:47:07;;;;;;;4.00;2.40;;;;;;;23.25;76.67;100440.34;5009534;28;20057;-70
2022/08/27 11:49:46;;;;;;;4.10;2.28;;;;;;;23.37;77.13;100436.63;5010122;28;20065;-70
2022/08/27 11:52:31;;;;;;;2.95;2.30;;;;;;;23.33;77.17;100427.38;5006946;28;20480;-70
2022/08/27 11:55:29;;;;;;;3.63;1.88;;;;;;;22.93;78.33;100416.25;5022505;28;20046;-69
2022/08/27 11:58:09;;;;;;;3.60;2.38;;;;;;;23.18;78.12;100409.53;5007748;28;20049;-70
2022/08/27 12:00:40;;;;;;;6.80;2.15;;;;;;;23.23;76.75;100396.06;5010547;28;20038;-70
2022/08/27 12:03:20;;;;;;;3.38;1.77;;;;;;;22.91;76.76;100389.88;5008449;28;20072;-70